sensor_id;sensor_type;location;lat;lon;timestamp;P1;durP1;ratioP1;P2;durP2;ratioP2
78148;SDS011;67396;42.664;23.382;2023-05-17T00:00:46;16.65;;;7.47;;
78148;SDS011;67396;42.664;23.382;2023-05-17T00:03:12;19.00;;;8.23;;
78148;SDS011;67396;42.664;23.382;2023-05-17T00:05:37;22.92;;;7.95;;
78148;SDS011;67396;42.664;23.382;2023-05-17T00:08:02;18.63;;;5.78;;
78148;SDS011;67396;42.664;23.382;2023-05-17T00:10:28;12.23;;;5.35;;
78148;SDS011;67396;42.664;23.382;2023-05-17T00:12:53;22.52;;;6.43;;
78148;SDS011;67396;42.664;23.382;2023-05-17T00:15:19;17.63;;;5.68;;
78148;SDS011;67396;42.664;23.382;2023-05-17T00:17:44;16.15;;;6.70;;
78148;SDS011;67396;42.664;23.382;2023-05-17T00:20:10;16.55;;;5.57;;
78148;SDS011;67396;42.664;23.382;2023-05-17T00:22:36;22.40;;;6.20;;
78148;SDS011;67396;42.664;23.382;2023-05-17T00:25:01;16.83;;;7.07;;
78148;SDS011;67396;42.664;23.382;2023-05-17T00:27:27;14.55;;;6.35;;
78148;SDS011;67396;42.664;23.382;2023-05-17T00:29:52;16.45;;;6.00;;
78148;SDS011;67396;42.664;23.382;2023-05-17T00:32:18;20.25;;;5.55;;
78148;SDS011;67396;42.664;23.382;2023-05-17T00:34:43;13.65;;;5.57;;
78148;SDS011;67396;42.664;23.382;2023-05-17T00:37:09;14.15;;;6.43;;
78148;SDS011;67396;42.664;23.382;2023-05-17T00:39:34;21.33;;;5.80;;
78148;SDS011;67396;42.664;23.382;2023-05-17T00:42:00;14.90;;;4.20;;
78148;SDS011;67396;42.664;23.382;2023-05-17T00:44:25;16.35;;;4.95;;
78148;SDS011;67396;42.664;23.382;2023-05-17T00:46:51;11.30;;;4.85;;
78148;SDS011;67396;42.664;23.382;2023-05-17T00:49:16;18.40;;;5.68;;
78148;SDS011;67396;42.664;23.382;2023-05-17T00:51:43;18.85;;;6.20;;
78148;SDS011;67396;42.664;23.382;2023-05-17T00:54:09;12.90;;;5.85;;
78148;SDS011;67396;42.664;23.382;2023-05-17T00:56:34;13.98;;;5.70;;
78148;SDS011;67396;42.664;23.382;2023-05-17T00:59:00;15.18;;;5.40;;
78148;SDS011;67396;42.664;23.382;2023-05-17T01:01:28;13.65;;;6.07;;
78148;SDS011;67396;42.664;23.382;2023-05-17T01:03:54;15.18;;;5.63;;
78148;SDS011;67396;42.664;23.382;2023-05-17T01:06:20;14.52;;;5.78;;
78148;SDS011;67396;42.664;23.382;2023-05-17T01:08:46;13.48;;;4.90;;
78148;SDS011;67396;42.664;23.382;2023-05-17T01:17:05;11.48;;;5.10;;
78148;SDS011;67396;42.664;23.382;2023-05-17T01:22:42;17.40;;;5.53;;
78148;SDS011;67396;42.664;23.382;2023-05-17T01:27:59;16.52;;;4.88;;
78148;SDS011;67396;42.664;23.382;2023-05-17T01:30:26;15.13;;;5.63;;
78148;SDS011;67396;42.664;23.382;2023-05-17T01:32:56;17.05;;;5.78;;
78148;SDS011;67396;42.664;23.382;2023-05-17T01:35:25;15.60;;;5.57;;
78148;SDS011;67396;42.664;23.382;2023-05-17T01:37:53;18.13;;;5.13;;
78148;SDS011;67396;42.664;23.382;2023-05-17T01:40:19;11.35;;;4.95;;
78148;SDS011;67396;42.664;23.382;2023-05-17T01:42:48;11.55;;;4.55;;
78148;SDS011;67396;42.664;23.382;2023-05-17T01:45:33;17.38;;;6.10;;
78148;SDS011;67396;42.664;23.382;2023-05-17T01:50:45;19.90;;;5.88;;
78148;SDS011;67396;42.664;23.382;2023-05-17T01:53:59;12.57;;;6.05;;
78148;SDS011;67396;42.664;23.382;2023-05-17T01:56:12;17.00;;;5.95;;
78148;SDS011;67396;42.664;23.382;2023-05-17T01:58:44;14.30;;;5.68;;
78148;SDS011;67396;42.664;23.382;2023-05-17T02:01:12;14.00;;;5.65;;
78148;SDS011;67396;42.664;23.382;2023-05-17T02:03:39;15.20;;;5.35;;
78148;SDS011;67396;42.664;23.382;2023-05-17T02:06:05;19.77;;;6.75;;
78148;SDS011;67396;42.664;23.382;2023-05-17T02:08:30;15.43;;;6.50;;
78148;SDS011;67396;42.664;23.382;2023-05-17T02:10:56;13.25;;;6.32;;
78148;SDS011;67396;42.664;23.382;2023-05-17T02:13:21;20.00;;;7.30;;
78148;SDS011;67396;42.664;23.382;2023-05-17T02:15:46;19.27;;;7.50;;
78148;SDS011;67396;42.664;23.382;2023-05-17T02:18:12;21.85;;;7.95;;
78148;SDS011;67396;42.664;23.382;2023-05-17T02:20:37;22.15;;;8.50;;
78148;SDS011;67396;42.664;23.382;2023-05-17T02:23:03;25.27;;;8.15;;
78148;SDS011;67396;42.664;23.382;2023-05-17T02:25:28;19.52;;;8.57;;
78148;SDS011;67396;42.664;23.382;2023-05-17T02:27:53;17.40;;;7.65;;
78148;SDS011;67396;42.664;23.382;2023-05-17T02:30:19;19.30;;;8.43;;
78148;SDS011;67396;42.664;23.382;2023-05-17T02:32:46;18.80;;;8.98;;
78148;SDS011;67396;42.664;23.382;2023-05-17T02:35:12;25.73;;;9.55;;
78148;SDS011;67396;42.664;23.382;2023-05-17T02:37:37;23.65;;;9.25;;
78148;SDS011;67396;42.664;23.382;2023-05-17T02:40:04;25.73;;;10.30;;
78148;SDS011;67396;42.664;23.382;2023-05-17T02:42:33;24.08;;;9.90;;
78148;SDS011;67396;42.664;23.382;2023-05-17T02:44:59;21.75;;;9.90;;
78148;SDS011;67396;42.664;23.382;2023-05-17T02:47:24;28.58;;;10.70;;
78148;SDS011;67396;42.664;23.382;2023-05-17T02:49:50;27.35;;;11.75;;
78148;SDS011;67396;42.664;23.382;2023-05-17T02:52:15;23.88;;;10.13;;
78148;SDS011;67396;42.664;23.382;2023-05-17T02:54:41;21.13;;;10.43;;
78148;SDS011;67396;42.664;23.382;2023-05-17T02:57:09;23.38;;;12.65;;
78148;SDS011;67396;42.664;23.382;2023-05-17T02:59:35;26.60;;;12.00;;
78148;SDS011;67396;42.664;23.382;2023-05-17T03:02:00;25.42;;;11.90;;
78148;SDS011;67396;42.664;23.382;2023-05-17T03:04:25;26.67;;;11.27;;
78148;SDS011;67396;42.664;23.382;2023-05-17T03:06:51;20.42;;;10.85;;
78148;SDS011;67396;42.664;23.382;2023-05-17T03:09:17;28.75;;;12.32;;
78148;SDS011;67396;42.664;23.382;2023-05-17T03:11:42;31.70;;;10.20;;
78148;SDS011;67396;42.664;23.382;2023-05-17T03:14:08;31.35;;;11.27;;
78148;SDS011;67396;42.664;23.382;2023-05-17T03:16:33;28.52;;;12.10;;
78148;SDS011;67396;42.664;23.382;2023-05-17T03:18:59;20.92;;;11.18;;
78148;SDS011;67396;42.664;23.382;2023-05-17T03:21:25;25.70;;;9.60;;
78148;SDS011;67396;42.664;23.382;2023-05-17T03:23:50;29.48;;;10.27;;
78148;SDS011;67396;42.664;23.382;2023-05-17T03:26:15;22.80;;;10.20;;
78148;SDS011;67396;42.664;23.382;2023-05-17T03:28:43;24.63;;;10.60;;
78148;SDS011;67396;42.664;23.382;2023-05-17T03:31:08;30.85;;;11.32;;
78148;SDS011;67396;42.664;23.382;2023-05-17T03:33:33;28.60;;;11.27;;
78148;SDS011;67396;42.664;23.382;2023-05-17T03:35:59;23.65;;;11.00;;
78148;SDS011;67396;42.664;23.382;2023-05-17T03:38:24;32.22;;;11.27;;
78148;SDS011;67396;42.664;23.382;2023-05-17T03:40:50;25.77;;;12.48;;
78148;SDS011;67396;42.664;23.382;2023-05-17T03:43:17;34.33;;;12.55;;
78148;SDS011;67396;42.664;23.382;2023-05-17T03:45:42;26.27;;;13.50;;
78148;SDS011;67396;42.664;23.382;2023-05-17T03:48:08;26.33;;;12.93;;
78148;SDS011;67396;42.664;23.382;2023-05-17T03:50:33;24.45;;;12.80;;
78148;SDS011;67396;42.664;23.382;2023-05-17T03:52:59;32.55;;;13.38;;
78148;SDS011;67396;42.664;23.382;2023-05-17T03:55:24;32.10;;;15.00;;
78148;SDS011;67396;42.664;23.382;2023-05-17T03:57:50;27.88;;;15.73;;
78148;SDS011;67396;42.664;23.382;2023-05-17T04:00:15;27.70;;;14.75;;
78148;SDS011;67396;42.664;23.382;2023-05-17T04:02:49;29.38;;;15.43;;
78148;SDS011;67396;42.664;23.382;2023-05-17T04:05:17;32.10;;;15.98;;
78148;SDS011;67396;42.664;23.382;2023-05-17T04:07:43;30.83;;;17.45;;
78148;SDS011;67396;42.664;23.382;2023-05-17T04:10:09;34.20;;;16.70;;
78148;SDS011;67396;42.664;23.382;2023-05-17T04:12:35;27.85;;;16.10;;
78148;SDS011;67396;42.664;23.382;2023-05-17T04:15:01;33.90;;;16.95;;
78148;SDS011;67396;42.664;23.382;2023-05-17T04:17:27;32.83;;;16.65;;
78148;SDS011;67396;42.664;23.382;2023-05-17T04:19:52;33.60;;;17.17;;
78148;SDS011;67396;42.664;23.382;2023-05-17T04:22:21;33.95;;;17.13;;
78148;SDS011;67396;42.664;23.382;2023-05-17T04:24:46;40.72;;;18.98;;
78148;SDS011;67396;42.664;23.382;2023-05-17T04:27:12;40.05;;;18.38;;
78148;SDS011;67396;42.664;23.382;2023-05-17T04:29:38;37.85;;;19.88;;
78148;SDS011;67396;42.664;23.382;2023-05-17T04:32:05;39.67;;;17.85;;
78148;SDS011;67396;42.664;23.382;2023-05-17T04:34:31;38.38;;;18.52;;
78148;SDS011;67396;42.664;23.382;2023-05-17T04:36:57;29.27;;;16.77;;
78148;SDS011;67396;42.664;23.382;2023-05-17T04:39:22;31.60;;;17.83;;
78148;SDS011;67396;42.664;23.382;2023-05-17T04:42:06;35.15;;;17.75;;
78148;SDS011;67396;42.664;23.382;2023-05-17T04:44:33;36.03;;;17.30;;
78148;SDS011;67396;42.664;23.382;2023-05-17T04:46:58;35.53;;;17.52;;
78148;SDS011;67396;42.664;23.382;2023-05-17T04:49:23;32.20;;;17.38;;
78148;SDS011;67396;42.664;23.382;2023-05-17T04:51:50;36.60;;;17.88;;
78148;SDS011;67396;42.664;23.382;2023-05-17T04:54:15;37.83;;;17.52;;
78148;SDS011;67396;42.664;23.382;2023-05-17T04:56:40;34.38;;;16.65;;
78148;SDS011;67396;42.664;23.382;2023-05-17T04:59:06;35.65;;;17.52;;
78148;SDS011;67396;42.664;23.382;2023-05-17T05:01:31;32.80;;;17.80;;
78148;SDS011;67396;42.664;23.382;2023-05-17T05:03:59;36.38;;;16.63;;
78148;SDS011;67396;42.664;23.382;2023-05-17T05:06:25;31.27;;;16.77;;
78148;SDS011;67396;42.664;23.382;2023-05-17T05:08:50;35.13;;;16.75;;
78148;SDS011;67396;42.664;23.382;2023-05-17T05:11:16;29.65;;;15.35;;
78148;SDS011;67396;42.664;23.382;2023-05-17T05:13:42;32.88;;;17.63;;
78148;SDS011;67396;42.664;23.382;2023-05-17T05:16:07;31.02;;;16.70;;
78148;SDS011;67396;42.664;23.382;2023-05-17T05:18:32;34.95;;;16.98;;
78148;SDS011;67396;42.664;23.382;2023-05-17T05:20:58;30.55;;;15.88;;
78148;SDS011;67396;42.664;23.382;2023-05-17T05:23:24;31.52;;;14.82;;
78148;SDS011;67396;42.664;23.382;2023-05-17T05:25:49;33.33;;;17.08;;
78148;SDS011;67396;42.664;23.382;2023-05-17T05:28:20;41.17;;;16.90;;
78148;SDS011;67396;42.664;23.382;2023-05-17T05:30:46;33.72;;;15.98;;
78148;SDS011;67396;42.664;23.382;2023-05-17T05:33:24;32.38;;;15.18;;
78148;SDS011;67396;42.664;23.382;2023-05-17T05:35:56;38.80;;;17.00;;
78148;SDS011;67396;42.664;23.382;2023-05-17T05:38:21;29.58;;;15.38;;
78148;SDS011;67396;42.664;23.382;2023-05-17T05:40:47;30.23;;;15.75;;
78148;SDS011;67396;42.664;23.382;2023-05-17T05:43:12;28.70;;;13.73;;
78148;SDS011;67396;42.664;23.382;2023-05-17T05:45:38;29.77;;;14.48;;
78148;SDS011;67396;42.664;23.382;2023-05-17T05:48:12;25.23;;;12.25;;
78148;SDS011;67396;42.664;23.382;2023-05-17T05:50:40;32.40;;;13.80;;
78148;SDS011;67396;42.664;23.382;2023-05-17T05:53:07;23.52;;;12.02;;
78148;SDS011;67396;42.664;23.382;2023-05-17T05:55:33;24.67;;;12.40;;
78148;SDS011;67396;42.664;23.382;2023-05-17T05:57:58;31.15;;;12.23;;
78148;SDS011;67396;42.664;23.382;2023-05-17T06:00:33;22.40;;;12.32;;
78148;SDS011;67396;42.664;23.382;2023-05-17T06:02:59;21.30;;;11.43;;
78148;SDS011;67396;42.664;23.382;2023-05-17T06:05:25;28.63;;;12.02;;
78148;SDS011;67396;42.664;23.382;2023-05-17T06:07:50;27.83;;;11.65;;
78148;SDS011;67396;42.664;23.382;2023-05-17T06:10:15;25.45;;;11.52;;
78148;SDS011;67396;42.664;23.382;2023-05-17T06:12:41;24.88;;;12.07;;
78148;SDS011;67396;42.664;23.382;2023-05-17T06:15:07;27.50;;;12.68;;
78148;SDS011;67396;42.664;23.382;2023-05-17T06:17:32;19.42;;;9.52;;
78148;SDS011;67396;42.664;23.382;2023-05-17T06:19:58;21.60;;;11.02;;
78148;SDS011;67396;42.664;23.382;2023-05-17T06:22:23;23.40;;;10.90;;
78148;SDS011;67396;42.664;23.382;2023-05-17T06:24:49;27.88;;;10.85;;
78148;SDS011;67396;42.664;23.382;2023-05-17T06:27:14;26.27;;;10.85;;
78148;SDS011;67396;42.664;23.382;2023-05-17T06:29:40;24.48;;;11.15;;
78148;SDS011;67396;42.664;23.382;2023-05-17T06:32:06;21.55;;;10.85;;
78148;SDS011;67396;42.664;23.382;2023-05-17T06:34:31;25.10;;;9.63;;
78148;SDS011;67396;42.664;23.382;2023-05-17T06:36:57;19.58;;;9.52;;
78148;SDS011;67396;42.664;23.382;2023-05-17T06:42:45;24.98;;;9.48;;
78148;SDS011;67396;42.664;23.382;2023-05-17T06:48:06;22.58;;;9.98;;
78148;SDS011;67396;42.664;23.382;2023-05-17T06:53:09;23.65;;;10.82;;
78148;SDS011;67396;42.664;23.382;2023-05-17T06:55:35;29.10;;;10.38;;
78148;SDS011;67396;42.664;23.382;2023-05-17T06:58:01;28.35;;;11.13;;
78148;SDS011;67396;42.664;23.382;2023-05-17T07:00:42;27.05;;;11.73;;
78148;SDS011;67396;42.664;23.382;2023-05-17T07:03:10;26.50;;;11.48;;
78148;SDS011;67396;42.664;23.382;2023-05-17T07:05:39;25.23;;;11.98;;
78148;SDS011;67396;42.664;23.382;2023-05-17T07:08:06;28.67;;;11.85;;
78148;SDS011;67396;42.664;23.382;2023-05-17T07:10:32;22.80;;;11.57;;
78148;SDS011;67396;42.664;23.382;2023-05-17T07:12:58;28.42;;;12.93;;
78148;SDS011;67396;42.664;23.382;2023-05-17T07:15:29;29.42;;;12.48;;
78148;SDS011;67396;42.664;23.382;2023-05-17T07:17:59;24.92;;;12.02;;
78148;SDS011;67396;42.664;23.382;2023-05-17T07:20:25;28.88;;;11.43;;
78148;SDS011;67396;42.664;23.382;2023-05-17T07:22:50;27.50;;;13.05;;
78148;SDS011;67396;42.664;23.382;2023-05-17T07:25:22;28.27;;;11.27;;
78148;SDS011;67396;42.664;23.382;2023-05-17T07:27:47;28.27;;;12.93;;
78148;SDS011;67396;42.664;23.382;2023-05-17T07:30:13;31.48;;;13.05;;
78148;SDS011;67396;42.664;23.382;2023-05-17T07:32:40;25.25;;;11.93;;
78148;SDS011;67396;42.664;23.382;2023-05-17T07:35:06;31.40;;;12.75;;
78148;SDS011;67396;42.664;23.382;2023-05-17T07:37:31;23.95;;;11.90;;
78148;SDS011;67396;42.664;23.382;2023-05-17T07:40:06;26.38;;;11.52;;
78148;SDS011;67396;42.664;23.382;2023-05-17T07:42:36;28.63;;;13.45;;
78148;SDS011;67396;42.664;23.382;2023-05-17T07:45:01;26.35;;;11.45;;
78148;SDS011;67396;42.664;23.382;2023-05-17T07:47:30;29.30;;;11.38;;
78148;SDS011;67396;42.664;23.382;2023-05-17T07:50:13;25.98;;;11.82;;
78148;SDS011;67396;42.664;23.382;2023-05-17T07:52:39;22.98;;;10.95;;
78148;SDS011;67396;42.664;23.382;2023-05-17T07:55:05;28.35;;;12.65;;
78148;SDS011;67396;42.664;23.382;2023-05-17T07:57:31;28.75;;;10.73;;
78148;SDS011;67396;42.664;23.382;2023-05-17T08:00:00;25.65;;;11.38;;
78148;SDS011;67396;42.664;23.382;2023-05-17T08:02:26;28.08;;;14.88;;
78148;SDS011;67396;42.664;23.382;2023-05-17T08:04:51;32.67;;;14.60;;
78148;SDS011;67396;42.664;23.382;2023-05-17T08:07:16;42.13;;;14.93;;
78148;SDS011;67396;42.664;23.382;2023-05-17T08:09:42;28.65;;;14.00;;
78148;SDS011;67396;42.664;23.382;2023-05-17T08:12:09;28.00;;;14.45;;
78148;SDS011;67396;42.664;23.382;2023-05-17T08:14:35;29.13;;;13.27;;
78148;SDS011;67396;42.664;23.382;2023-05-17T08:17:00;31.95;;;14.02;;
78148;SDS011;67396;42.664;23.382;2023-05-17T08:19:28;34.17;;;14.68;;
78148;SDS011;67396;42.664;23.382;2023-05-17T08:21:54;30.77;;;13.82;;
78148;SDS011;67396;42.664;23.382;2023-05-17T08:24:20;28.33;;;14.02;;
78148;SDS011;67396;42.664;23.382;2023-05-17T08:26:45;28.50;;;14.05;;
78148;SDS011;67396;42.664;23.382;2023-05-17T08:29:10;30.70;;;14.45;;
78148;SDS011;67396;42.664;23.382;2023-05-17T08:31:36;28.27;;;14.23;;
78148;SDS011;67396;42.664;23.382;2023-05-17T08:34:01;30.85;;;15.98;;
78148;SDS011;67396;42.664;23.382;2023-05-17T08:36:27;33.08;;;14.05;;
78148;SDS011;67396;42.664;23.382;2023-05-17T08:38:52;37.80;;;15.68;;
78148;SDS011;67396;42.664;23.382;2023-05-17T08:41:18;32.78;;;14.65;;
78148;SDS011;67396;42.664;23.382;2023-05-17T08:43:45;35.13;;;14.50;;
78148;SDS011;67396;42.664;23.382;2023-05-17T08:46:12;31.65;;;14.23;;
78148;SDS011;67396;42.664;23.382;2023-05-17T08:48:39;32.53;;;14.77;;
78148;SDS011;67396;42.664;23.382;2023-05-17T08:51:07;32.60;;;14.70;;
78148;SDS011;67396;42.664;23.382;2023-05-17T08:53:36;37.28;;;15.02;;
78148;SDS011;67396;42.664;23.382;2023-05-17T08:56:02;33.45;;;15.13;;
78148;SDS011;67396;42.664;23.382;2023-05-17T08:58:33;32.72;;;14.20;;
78148;SDS011;67396;42.664;23.382;2023-05-17T09:01:03;32.33;;;13.02;;
78148;SDS011;67396;42.664;23.382;2023-05-17T09:03:31;32.45;;;14.23;;
78148;SDS011;67396;42.664;23.382;2023-05-17T09:05:59;30.42;;;12.63;;
78148;SDS011;67396;42.664;23.382;2023-05-17T09:08:24;33.70;;;14.70;;
78148;SDS011;67396;42.664;23.382;2023-05-17T09:10:51;33.40;;;14.48;;
78148;SDS011;67396;42.664;23.382;2023-05-17T09:13:18;28.30;;;13.48;;
78148;SDS011;67396;42.664;23.382;2023-05-17T09:15:44;31.00;;;14.15;;
78148;SDS011;67396;42.664;23.382;2023-05-17T09:18:12;31.05;;;12.75;;
78148;SDS011;67396;42.664;23.382;2023-05-17T09:20:38;29.45;;;11.98;;
78148;SDS011;67396;42.664;23.382;2023-05-17T09:23:08;28.55;;;10.70;;
78148;SDS011;67396;42.664;23.382;2023-05-17T09:25:37;27.48;;;11.35;;
78148;SDS011;67396;42.664;23.382;2023-05-17T09:28:03;27.75;;;10.95;;
78148;SDS011;67396;42.664;23.382;2023-05-17T09:30:32;24.50;;;11.48;;
78148;SDS011;67396;42.664;23.382;2023-05-17T09:33:05;23.80;;;11.27;;
78148;SDS011;67396;42.664;23.382;2023-05-17T09:35:32;24.88;;;12.75;;
78148;SDS011;67396;42.664;23.382;2023-05-17T09:38:09;29.65;;;11.00;;
78148;SDS011;67396;42.664;23.382;2023-05-17T09:40:36;30.23;;;12.45;;
78148;SDS011;67396;42.664;23.382;2023-05-17T09:43:06;28.27;;;10.55;;
78148;SDS011;67396;42.664;23.382;2023-05-17T09:45:32;36.03;;;13.00;;
78148;SDS011;67396;42.664;23.382;2023-05-17T09:48:09;31.77;;;12.88;;
78148;SDS011;67396;42.664;23.382;2023-05-17T09:50:42;25.70;;;11.95;;
78148;SDS011;67396;42.664;23.382;2023-05-17T09:53:25;29.08;;;10.52;;
78148;SDS011;67396;42.664;23.382;2023-05-17T09:55:55;23.00;;;9.98;;
78148;SDS011;67396;42.664;23.382;2023-05-17T09:58:24;27.02;;;10.07;;
78148;SDS011;67396;42.664;23.382;2023-05-17T10:00:51;23.73;;;9.07;;
78148;SDS011;67396;42.664;23.382;2023-05-17T10:03:18;24.25;;;9.10;;
78148;SDS011;67396;42.664;23.382;2023-05-17T10:05:44;19.17;;;8.23;;
78148;SDS011;67396;42.664;23.382;2023-05-17T10:08:14;25.00;;;9.07;;
78148;SDS011;67396;42.664;23.382;2023-05-17T10:10:41;22.33;;;9.20;;
78148;SDS011;67396;42.664;23.382;2023-05-17T10:13:09;20.48;;;9.38;;
78148;SDS011;67396;42.664;23.382;2023-05-17T10:15:36;23.75;;;9.65;;
78148;SDS011;67396;42.664;23.382;2023-05-17T10:18:03;24.40;;;8.55;;
78148;SDS011;67396;42.664;23.382;2023-05-17T10:20:30;20.73;;;8.30;;
78148;SDS011;67396;42.664;23.382;2023-05-17T10:22:56;19.02;;;6.93;;
78148;SDS011;67396;42.664;23.382;2023-05-17T10:25:22;21.42;;;8.50;;
78148;SDS011;67396;42.664;23.382;2023-05-17T10:27:48;22.85;;;9.70;;
78148;SDS011;67396;42.664;23.382;2023-05-17T10:30:15;25.52;;;9.82;;
78148;SDS011;67396;42.664;23.382;2023-05-17T10:32:43;28.60;;;8.32;;
78148;SDS011;67396;42.664;23.382;2023-05-17T10:35:10;28.55;;;9.38;;
78148;SDS011;67396;42.664;23.382;2023-05-17T10:37:39;20.40;;;8.30;;
78148;SDS011;67396;42.664;23.382;2023-05-17T10:40:06;20.05;;;9.15;;
78148;SDS011;67396;42.664;23.382;2023-05-17T10:42:37;23.33;;;8.57;;
78148;SDS011;67396;42.664;23.382;2023-05-17T10:45:06;26.58;;;10.05;;
78148;SDS011;67396;42.664;23.382;2023-05-17T10:47:33;26.65;;;9.77;;
78148;SDS011;67396;42.664;23.382;2023-05-17T10:49:59;18.50;;;8.57;;
78148;SDS011;67396;42.664;23.382;2023-05-17T10:52:25;20.67;;;8.70;;
78148;SDS011;67396;42.664;23.382;2023-05-17T10:54:51;23.90;;;8.68;;
78148;SDS011;67396;42.664;23.382;2023-05-17T10:57:18;27.20;;;9.40;;
78148;SDS011;67396;42.664;23.382;2023-05-17T10:59:55;27.30;;;8.85;;
78148;SDS011;67396;42.664;23.382;2023-05-17T11:02:22;21.42;;;8.70;;
78148;SDS011;67396;42.664;23.382;2023-05-17T11:04:49;22.25;;;8.30;;
78148;SDS011;67396;42.664;23.382;2023-05-17T11:12:27;27.08;;;10.00;;
78148;SDS011;67396;42.664;23.382;2023-05-17T11:14:55;21.85;;;9.60;;
78148;SDS011;67396;42.664;23.382;2023-05-17T11:17:22;26.23;;;10.02;;
78148;SDS011;67396;42.664;23.382;2023-05-17T11:20:05;20.45;;;9.48;;
78148;SDS011;67396;42.664;23.382;2023-05-17T11:22:35;23.25;;;8.95;;
78148;SDS011;67396;42.664;23.382;2023-05-17T11:25:06;20.05;;;10.68;;
78148;SDS011;67396;42.664;23.382;2023-05-17T11:27:39;23.30;;;10.27;;
78148;SDS011;67396;42.664;23.382;2023-05-17T11:30:14;33.28;;;11.18;;
78148;SDS011;67396;42.664;23.382;2023-05-17T11:32:45;24.73;;;10.73;;
78148;SDS011;67396;42.664;23.382;2023-05-17T11:35:12;24.85;;;9.98;;
78148;SDS011;67396;42.664;23.382;2023-05-17T11:37:38;32.45;;;11.63;;
78148;SDS011;67396;42.664;23.382;2023-05-17T11:40:08;26.23;;;9.07;;
78148;SDS011;67396;42.664;23.382;2023-05-17T11:42:34;25.92;;;10.35;;
78148;SDS011;67396;42.664;23.382;2023-05-17T11:45:01;23.90;;;9.20;;
78148;SDS011;67396;42.664;23.382;2023-05-17T11:47:27;29.92;;;10.40;;
78148;SDS011;67396;42.664;23.382;2023-05-17T11:49:53;17.63;;;7.50;;
78148;SDS011;67396;42.664;23.382;2023-05-17T11:52:20;24.15;;;8.30;;
78148;SDS011;67396;42.664;23.382;2023-05-17T11:54:49;26.83;;;8.98;;
78148;SDS011;67396;42.664;23.382;2023-05-17T11:57:16;22.63;;;9.25;;
78148;SDS011;67396;42.664;23.382;2023-05-17T11:59:44;19.42;;;9.15;;
78148;SDS011;67396;42.664;23.382;2023-05-17T12:02:09;22.77;;;6.95;;
78148;SDS011;67396;42.664;23.382;2023-05-17T12:04:50;23.73;;;8.38;;
78148;SDS011;67396;42.664;23.382;2023-05-17T12:07:15;22.48;;;8.75;;
78148;SDS011;67396;42.664;23.382;2023-05-17T12:09:43;24.77;;;9.38;;
78148;SDS011;67396;42.664;23.382;2023-05-17T12:12:08;20.55;;;9.13;;
78148;SDS011;67396;42.664;23.382;2023-05-17T12:14:34;24.73;;;8.38;;
78148;SDS011;67396;42.664;23.382;2023-05-17T12:17:00;23.25;;;7.60;;
78148;SDS011;67396;42.664;23.382;2023-05-17T12:19:27;23.50;;;8.85;;
78148;SDS011;67396;42.664;23.382;2023-05-17T12:22:04;19.35;;;8.23;;
78148;SDS011;67396;42.664;23.382;2023-05-17T12:24:39;18.25;;;7.35;;
78148;SDS011;67396;42.664;23.382;2023-05-17T12:27:06;21.70;;;8.15;;
78148;SDS011;67396;42.664;23.382;2023-05-17T12:29:31;20.42;;;8.93;;
78148;SDS011;67396;42.664;23.382;2023-05-17T12:31:57;20.95;;;9.43;;
78148;SDS011;67396;42.664;23.382;2023-05-17T12:34:24;22.08;;;8.88;;
78148;SDS011;67396;42.664;23.382;2023-05-17T12:36:51;15.82;;;8.15;;
78148;SDS011;67396;42.664;23.382;2023-05-17T12:39:17;20.33;;;6.85;;
78148;SDS011;67396;42.664;23.382;2023-05-17T12:41:47;25.85;;;10.48;;
78148;SDS011;67396;42.664;23.382;2023-05-17T12:44:14;21.30;;;10.00;;
78148;SDS011;67396;42.664;23.382;2023-05-17T12:46:40;11.52;;;7.53;;
78148;SDS011;67396;42.664;23.382;2023-05-17T12:49:06;20.33;;;11.40;;
78148;SDS011;67396;42.664;23.382;2023-05-17T12:51:43;21.85;;;9.52;;
78148;SDS011;67396;42.664;23.382;2023-05-17T12:54:10;23.00;;;9.30;;
78148;SDS011;67396;42.664;23.382;2023-05-17T12:56:36;17.40;;;9.38;;
78148;SDS011;67396;42.664;23.382;2023-05-17T13:01:48;21.95;;;9.18;;
78148;SDS011;67396;42.664;23.382;2023-05-17T13:04:16;23.67;;;9.57;;
78148;SDS011;67396;42.664;23.382;2023-05-17T13:09:19;27.10;;;10.95;;
78148;SDS011;67396;42.664;23.382;2023-05-17T13:11:55;24.35;;;11.52;;
78148;SDS011;67396;42.664;23.382;2023-05-17T13:14:41;20.23;;;9.10;;
78148;SDS011;67396;42.664;23.382;2023-05-17T13:17:08;26.00;;;10.10;;
78148;SDS011;67396;42.664;23.382;2023-05-17T13:20:00;18.38;;;8.23;;
78148;SDS011;67396;42.664;23.382;2023-05-17T13:22:26;17.35;;;9.18;;
78148;SDS011;67396;42.664;23.382;2023-05-17T13:24:52;22.35;;;11.10;;
78148;SDS011;67396;42.664;23.382;2023-05-17T13:27:18;19.95;;;9.25;;
78148;SDS011;67396;42.664;23.382;2023-05-17T13:29:43;23.10;;;9.23;;
78148;SDS011;67396;42.664;23.382;2023-05-17T13:32:10;19.40;;;8.82;;
78148;SDS011;67396;42.664;23.382;2023-05-17T13:34:37;18.17;;;8.65;;
78148;SDS011;67396;42.664;23.382;2023-05-17T13:37:03;17.80;;;7.95;;
78148;SDS011;67396;42.664;23.382;2023-05-17T13:39:30;17.88;;;7.85;;
78148;SDS011;67396;42.664;23.382;2023-05-17T13:41:56;19.38;;;7.88;;
78148;SDS011;67396;42.664;23.382;2023-05-17T13:44:21;16.48;;;7.45;;
78148;SDS011;67396;42.664;23.382;2023-05-17T13:46:47;24.92;;;7.60;;
78148;SDS011;67396;42.664;23.382;2023-05-17T13:49:12;15.85;;;6.03;;
78148;SDS011;67396;42.664;23.382;2023-05-17T13:51:38;15.82;;;6.30;;
78148;SDS011;67396;42.664;23.382;2023-05-17T13:54:04;18.85;;;6.10;;
78148;SDS011;67396;42.664;23.382;2023-05-17T13:56:30;12.68;;;4.80;;
78148;SDS011;67396;42.664;23.382;2023-05-17T13:58:55;12.85;;;5.97;;
78148;SDS011;67396;42.664;23.382;2023-05-17T14:01:21;15.82;;;6.53;;
78148;SDS011;67396;42.664;23.382;2023-05-17T14:03:46;19.67;;;5.93;;
78148;SDS011;67396;42.664;23.382;2023-05-17T14:06:12;10.27;;;5.60;;
78148;SDS011;67396;42.664;23.382;2023-05-17T14:08:37;13.43;;;6.80;;
78148;SDS011;67396;42.664;23.382;2023-05-17T14:11:03;12.55;;;5.70;;
78148;SDS011;67396;42.664;23.382;2023-05-17T14:13:29;15.40;;;5.32;;
78148;SDS011;67396;42.664;23.382;2023-05-17T14:15:54;13.18;;;6.28;;
78148;SDS011;67396;42.664;23.382;2023-05-17T14:18:19;13.85;;;5.90;;
78148;SDS011;67396;42.664;23.382;2023-05-17T14:20:45;12.23;;;6.93;;
78148;SDS011;67396;42.664;23.382;2023-05-17T14:23:11;14.65;;;6.20;;
78148;SDS011;67396;42.664;23.382;2023-05-17T14:25:36;14.57;;;6.60;;
78148;SDS011;67396;42.664;23.382;2023-05-17T14:28:02;16.63;;;7.32;;
78148;SDS011;67396;42.664;23.382;2023-05-17T14:30:28;14.70;;;6.32;;
78148;SDS011;67396;42.664;23.382;2023-05-17T14:32:53;11.20;;;5.53;;
78148;SDS011;67396;42.664;23.382;2023-05-17T14:35:19;17.33;;;6.20;;
78148;SDS011;67396;42.664;23.382;2023-05-17T14:37:44;10.82;;;6.30;;
78148;SDS011;67396;42.664;23.382;2023-05-17T14:40:10;12.20;;;5.70;;
78148;SDS011;67396;42.664;23.382;2023-05-17T14:42:36;12.40;;;4.57;;
78148;SDS011;67396;42.664;23.382;2023-05-17T14:45:02;10.48;;;5.18;;
78148;SDS011;67396;42.664;23.382;2023-05-17T14:47:28;15.50;;;5.97;;
78148;SDS011;67396;42.664;23.382;2023-05-17T14:49:53;12.88;;;5.00;;